createdAt,value
2018-06-15T00:01:27.935Z,16.88
2018-06-15T00:06:30.042Z,16.89
2018-06-15T00:11:32.198Z,16.91
2018-06-15T00:16:34.353Z,16.92
2018-06-15T00:21:36.476Z,16.93
2018-06-15T00:26:38.882Z,16.86
2018-06-15T00:31:41.037Z,16.78
2018-06-15T00:36:43.164Z,16.71
2018-06-15T00:41:45.306Z,16.69
2018-06-15T00:46:47.489Z,16.68
2018-06-15T00:51:49.640Z,16.47
2018-06-15T00:57:03.410Z,16.54
2018-06-15T01:02:05.539Z,16.50
2018-06-15T01:07:07.638Z,16.57
2018-06-15T01:12:09.782Z,16.55
2018-06-15T01:17:11.899Z,16.36
2018-06-15T01:22:14.032Z,16.38
2018-06-15T01:27:16.172Z,16.42
2018-06-15T01:32:18.291Z,16.36
2018-06-15T01:37:20.425Z,16.35
2018-06-15T01:42:22.543Z,16.24
2018-06-15T01:47:24.705Z,16.12
2018-06-15T01:52:26.818Z,16.06
2018-06-15T01:57:28.979Z,16.13
2018-06-15T02:02:31.131Z,16.19
2018-06-15T02:07:33.299Z,16.28
2018-06-15T02:12:35.469Z,16.33
2018-06-15T02:17:37.594Z,16.34
2018-06-15T02:22:39.748Z,16.32
2018-06-15T02:27:41.871Z,16.35
2018-06-15T02:32:43.994Z,16.47
2018-06-15T02:37:46.105Z,16.53
2018-06-15T02:42:48.237Z,16.52
2018-06-15T02:47:50.374Z,16.58
2018-06-15T02:52:52.512Z,16.54
2018-06-15T02:57:54.634Z,16.55
2018-06-15T03:02:56.794Z,16.48
2018-06-15T03:07:58.956Z,16.48
2018-06-15T03:13:01.094Z,16.46
2018-06-15T03:18:03.234Z,16.36
2018-06-15T03:23:05.397Z,16.23
2018-06-15T03:28:07.574Z,16.23
2018-06-15T03:33:09.718Z,16.25
2018-06-15T03:38:11.856Z,16.29
2018-06-15T03:43:13.987Z,16.20
2018-06-15T03:48:16.168Z,16.32
2018-06-15T03:53:18.291Z,16.38
2018-06-15T03:58:20.435Z,16.46
2018-06-15T04:03:22.540Z,16.54
2018-06-15T04:08:24.680Z,16.64
2018-06-15T04:13:26.809Z,16.64
2018-06-15T04:18:28.917Z,16.70
2018-06-15T04:23:31.065Z,16.69
2018-06-15T04:28:33.199Z,16.73
2018-06-15T04:33:35.323Z,16.47
2018-06-15T04:38:37.927Z,16.49
2018-06-15T04:43:40.081Z,16.32
2018-06-15T04:48:42.267Z,16.41
2018-06-15T04:53:44.419Z,16.54
2018-06-15T04:58:46.537Z,16.64
2018-06-15T05:03:48.660Z,16.73
2018-06-15T05:08:50.786Z,16.79
2018-06-15T05:13:52.922Z,16.85
2018-06-15T05:18:55.343Z,16.93
2018-06-15T05:23:57.513Z,17.10
2018-06-15T05:28:59.656Z,17.29
2018-06-15T05:34:01.799Z,17.41
2018-06-15T05:39:06.954Z,17.54
2018-06-15T05:44:09.095Z,17.72
2018-06-15T05:49:11.262Z,17.54
2018-06-15T05:54:13.405Z,17.54
2018-06-15T05:59:15.548Z,17.53
2018-06-15T06:04:17.675Z,17.54
2018-06-15T06:09:19.819Z,17.55
2018-06-15T06:14:21.966Z,17.53
2018-06-15T06:19:24.079Z,17.44
2018-06-15T06:24:26.199Z,17.58
2018-06-15T06:29:28.309Z,17.70
2018-06-15T06:34:31.046Z,17.75
2018-06-15T06:39:33.157Z,17.76
2018-06-15T06:44:35.283Z,17.95
2018-06-15T06:49:37.459Z,17.91
2018-06-15T06:54:39.586Z,17.93
2018-06-15T06:59:41.725Z,18.12
2018-06-15T07:04:43.840Z,18.08
2018-06-15T07:09:45.984Z,18.20
2018-06-15T07:14:52.373Z,18.21
2018-06-15T07:19:54.473Z,18.43
2018-06-15T07:24:56.625Z,18.48
2018-06-15T07:29:58.753Z,18.46
2018-06-15T07:35:00.927Z,18.61
2018-06-15T07:40:03.146Z,18.75
2018-06-15T07:45:05.523Z,18.89
2018-06-15T07:50:07.730Z,18.80
2018-06-15T07:55:09.886Z,18.82
2018-06-15T08:00:12.057Z,18.92
2018-06-15T08:05:14.208Z,18.96
2018-06-15T08:10:16.407Z,18.90
2018-06-15T08:15:18.537Z,19.09
2018-06-15T08:20:20.827Z,19.31
2018-06-15T08:25:22.962Z,19.46
2018-06-15T08:30:25.133Z,19.50
2018-06-15T08:35:27.291Z,19.76
2018-06-15T08:40:29.448Z,19.76
2018-06-15T08:45:31.921Z,19.92
2018-06-15T08:50:34.107Z,19.97
2018-06-15T08:55:36.418Z,20.04
2018-06-15T09:00:38.550Z,20.32
2018-06-15T09:05:40.705Z,20.23
2018-06-15T09:10:42.828Z,20.25
2018-06-15T09:15:45.002Z,20.29
2018-06-15T09:20:47.170Z,20.10
2018-06-15T09:25:50.303Z,20.22
2018-06-15T09:30:52.453Z,20.37
2018-06-15T09:35:54.567Z,20.47
2018-06-15T09:40:56.682Z,20.60
2018-06-15T09:45:58.861Z,20.59
2018-06-15T09:51:01.070Z,20.54
2018-06-15T09:56:03.254Z,20.55
2018-06-15T10:01:10.270Z,20.96
2018-06-15T10:06:12.497Z,20.92
2018-06-15T10:11:14.585Z,20.71
2018-06-15T10:16:16.698Z,20.26
2018-06-15T10:21:18.842Z,20.29
2018-06-15T10:26:21.063Z,20.60
2018-06-15T10:31:23.659Z,21.18
2018-06-15T10:36:25.952Z,21.68
2018-06-15T10:41:28.121Z,22.07
2018-06-15T10:46:30.310Z,22.12
2018-06-15T10:51:32.547Z,22.48
2018-06-15T10:56:34.733Z,22.42
2018-06-15T11:01:36.887Z,21.68
2018-06-15T11:06:39.064Z,21.55
2018-06-15T11:11:41.236Z,22.24
2018-06-15T11:16:43.397Z,22.90
2018-06-15T11:21:45.601Z,23.32
2018-06-15T11:26:47.770Z,23.06
2018-06-15T11:31:49.952Z,22.28
2018-06-15T11:36:52.100Z,21.89
2018-06-15T11:41:54.256Z,21.63
2018-06-15T11:46:56.418Z,21.81
2018-06-15T11:51:58.768Z,23.21
2018-06-15T11:57:00.892Z,23.98
2018-06-15T12:02:03.043Z,24.52
2018-06-15T12:07:05.218Z,25.11
2018-06-15T12:12:07.425Z,25.15
2018-06-15T12:17:09.619Z,24.82
2018-06-15T12:22:11.793Z,24.25
2018-06-15T12:27:13.987Z,24.44
2018-06-15T12:32:16.164Z,23.74
2018-06-15T12:37:18.380Z,23.11
2018-06-15T12:42:20.551Z,23.02
2018-06-15T12:47:22.718Z,22.83
2018-06-15T12:52:24.900Z,23.27
2018-06-15T12:57:27.049Z,23.65
2018-06-15T13:02:29.199Z,24.01
2018-06-15T13:07:31.334Z,23.78
2018-06-15T13:12:33.515Z,23.39
2018-06-15T13:17:35.662Z,23.26
2018-06-15T13:22:37.827Z,24.21
2018-06-15T13:27:39.982Z,24.33
2018-06-15T13:32:42.134Z,24.97
2018-06-15T13:37:44.278Z,26.09
2018-06-15T13:42:53.402Z,26.44
2018-06-15T13:47:55.587Z,25.80
2018-06-15T13:52:57.800Z,25.79
2018-06-15T13:57:59.941Z,24.65
2018-06-15T14:03:02.170Z,24.50
2018-06-15T14:08:05.011Z,24.50
2018-06-15T14:13:07.136Z,24.27
2018-06-15T14:18:09.340Z,24.25
2018-06-15T14:23:11.491Z,24.38
2018-06-15T14:28:13.697Z,24.54
2018-06-15T14:33:15.885Z,25.34
2018-06-15T14:38:18.076Z,25.45
2018-06-15T14:43:20.284Z,25.21
2018-06-15T14:48:22.418Z,24.64
2018-06-15T14:53:24.636Z,24.70
2018-06-15T14:58:27.154Z,24.95
2018-06-15T15:03:29.281Z,24.65
2018-06-15T15:08:31.551Z,24.32
2018-06-15T15:13:33.688Z,25.12
2018-06-15T15:18:35.879Z,25.31
2018-06-15T15:23:38.037Z,25.85
2018-06-15T15:28:40.226Z,26.22
2018-06-15T15:33:42.502Z,26.52
2018-06-15T15:38:45.172Z,26.25
2018-06-15T15:43:47.388Z,25.85
2018-06-15T15:48:49.553Z,25.23
2018-06-15T15:53:51.737Z,24.56
2018-06-15T15:58:53.926Z,24.50
2018-06-15T16:03:56.098Z,24.32
2018-06-15T16:08:58.276Z,24.60
2018-06-15T16:14:00.449Z,25.17
2018-06-15T16:19:02.609Z,25.39
2018-06-15T16:24:04.963Z,25.16
2018-06-15T16:29:07.175Z,24.89
2018-06-15T16:34:09.551Z,25.49
2018-06-15T16:39:11.729Z,24.98
2018-06-15T16:44:13.874Z,24.33
2018-06-15T16:49:16.021Z,23.92
2018-06-15T16:54:18.313Z,24.23
2018-06-15T16:59:20.493Z,24.71
2018-06-15T17:04:22.663Z,25.28
2018-06-15T17:09:24.868Z,25.51
2018-06-15T17:14:27.026Z,25.39
2018-06-15T17:19:29.275Z,24.89
2018-06-15T17:24:31.372Z,25.09
2018-06-15T17:29:33.510Z,25.41
2018-06-15T17:34:35.677Z,25.37
2018-06-15T17:39:37.804Z,25.43
2018-06-15T17:44:39.983Z,25.08
2018-06-15T17:49:42.295Z,24.48
2018-06-15T17:54:44.488Z,24.03
2018-06-15T17:59:46.702Z,24.27
2018-06-15T18:04:48.856Z,24.44
2018-06-15T18:09:51.037Z,24.08
2018-06-15T18:14:53.253Z,24.11
2018-06-15T18:19:55.445Z,24.01
2018-06-15T18:24:57.611Z,23.61
2018-06-15T18:29:59.803Z,23.13
2018-06-15T18:35:02.063Z,22.68
2018-06-15T18:40:04.320Z,22.46
2018-06-15T18:45:06.489Z,22.10
2018-06-15T18:50:08.687Z,21.74
2018-06-15T18:55:10.967Z,21.54
2018-06-15T19:00:13.195Z,21.41
2018-06-15T19:05:15.374Z,21.18
2018-06-15T19:10:17.564Z,21.13
2018-06-15T19:15:19.736Z,21.11
2018-06-15T19:20:21.919Z,21.00
2018-06-15T19:25:24.099Z,20.91
2018-06-15T19:30:26.288Z,20.79
2018-06-15T19:35:28.475Z,20.71
2018-06-15T19:40:30.662Z,20.65
2018-06-15T19:45:32.842Z,20.60
2018-06-15T19:50:35.044Z,20.51
2018-06-15T19:55:37.237Z,20.39
2018-06-15T20:00:39.428Z,20.15
2018-06-15T20:05:41.610Z,20.15
2018-06-15T20:10:43.790Z,20.03
2018-06-15T20:15:46.041Z,20.00
2018-06-15T20:20:48.240Z,19.90
2018-06-15T20:25:50.430Z,19.85
2018-06-15T20:30:52.692Z,19.84
2018-06-15T20:35:54.792Z,19.73
2018-06-15T20:40:56.992Z,19.68
2018-06-15T20:45:59.185Z,19.59
2018-06-15T20:51:01.382Z,19.52
2018-06-15T20:56:03.702Z,19.49
2018-06-15T21:01:05.908Z,19.42
2018-06-15T21:06:08.228Z,19.31
2018-06-15T21:11:10.329Z,19.28
2018-06-15T21:16:12.607Z,19.25
2018-06-15T21:21:14.826Z,19.20
2018-06-15T21:26:17.012Z,19.15
2018-06-15T21:31:19.224Z,19.05
2018-06-15T21:36:21.394Z,19.04
2018-06-15T21:41:23.591Z,18.98
2018-06-15T21:46:25.981Z,18.91
2018-06-15T21:51:28.182Z,18.86
2018-06-15T21:56:30.383Z,18.87
2018-06-15T22:01:32.566Z,18.76
2018-06-15T22:06:34.788Z,18.81
2018-06-15T22:11:37.047Z,18.81
2018-06-15T22:16:44.798Z,18.68
2018-06-15T22:21:47.087Z,18.73
2018-06-15T22:26:49.253Z,18.72
2018-06-15T22:31:52.332Z,18.71
2018-06-15T22:36:54.516Z,18.70
2018-06-15T22:41:56.707Z,18.64
2018-06-15T22:46:58.877Z,18.61
2018-06-15T22:52:01.039Z,18.66
2018-06-15T22:57:03.254Z,18.71
2018-06-15T23:02:05.636Z,18.72
2018-06-15T23:07:07.801Z,18.61
2018-06-15T23:12:09.949Z,18.56
2018-06-15T23:17:12.566Z,18.62
2018-06-15T23:22:14.972Z,18.70
2018-06-15T23:27:17.467Z,18.66
2018-06-15T23:32:19.881Z,18.59
2018-06-15T23:37:22.453Z,18.51
2018-06-15T23:42:24.857Z,18.70
2018-06-15T23:47:27.406Z,18.97
2018-06-15T23:52:29.725Z,19.22
2018-06-15T23:57:32.350Z,19.37
